sensor_id;sensor_type;location;lat;lon;timestamp;P1;durP1;ratioP1;P2;durP2;ratioP2
6561;SDS011;3314;50.890;4.722;2022-12-10T00:01:21;39.5;;;13.3;;
6561;SDS011;3314;50.890;4.722;2022-12-10T00:03:21;38.4;;;14.0;;
6561;SDS011;3314;50.890;4.722;2022-12-10T00:05:20;39.4;;;13.9;;
6561;SDS011;3314;50.890;4.722;2022-12-10T00:07:20;35.3;;;13.2;;
6561;SDS011;3314;50.890;4.722;2022-12-10T00:09:20;33.2;;;13.0;;
6561;SDS011;3314;50.890;4.722;2022-12-10T00:11:20;34.4;;;12.9;;
6561;SDS011;3314;50.890;4.722;2022-12-10T00:13:20;35.2;;;13.9;;
6561;SDS011;3314;50.890;4.722;2022-12-10T00:15:22;37.9;;;14.0;;
6561;SDS011;3314;50.890;4.722;2022-12-10T00:17:11;35.2;;;14.0;;
6561;SDS011;3314;50.890;4.722;2022-12-10T00:19:10;37.4;;;13.3;;
6561;SDS011;3314;50.890;4.722;2022-12-10T00:21:11;41.7;;;13.9;;
6561;SDS011;3314;50.890;4.722;2022-12-10T00:23:11;41.5;;;14.5;;
6561;SDS011;3314;50.890;4.722;2022-12-10T00:25:10;35.4;;;13.5;;
6561;SDS011;3314;50.890;4.722;2022-12-10T00:27:10;37.8;;;14.0;;
6561;SDS011;3314;50.890;4.722;2022-12-10T00:29:10;42.9;;;14.0;;
6561;SDS011;3314;50.890;4.722;2022-12-10T00:31:11;38.2;;;14.7;;
6561;SDS011;3314;50.890;4.722;2022-12-10T00:33:11;40.5;;;14.4;;
6561;SDS011;3314;50.890;4.722;2022-12-10T00:35:11;44.8;;;15.4;;
6561;SDS011;3314;50.890;4.722;2022-12-10T00:37:10;46.7;;;16.5;;
6561;SDS011;3314;50.890;4.722;2022-12-10T00:39:10;43.2;;;15.9;;
6561;SDS011;3314;50.890;4.722;2022-12-10T00:41:11;47.0;;;16.3;;
6561;SDS011;3314;50.890;4.722;2022-12-10T00:43:10;43.7;;;16.3;;
6561;SDS011;3314;50.890;4.722;2022-12-10T00:45:10;42.0;;;15.0;;
6561;SDS011;3314;50.890;4.722;2022-12-10T00:47:10;46.0;;;16.9;;
6561;SDS011;3314;50.890;4.722;2022-12-10T00:49:10;39.1;;;14.9;;
6561;SDS011;3314;50.890;4.722;2022-12-10T00:51:11;40.5;;;16.0;;
6561;SDS011;3314;50.890;4.722;2022-12-10T00:53:11;39.3;;;14.5;;
6561;SDS011;3314;50.890;4.722;2022-12-10T00:55:11;40.3;;;15.9;;
6561;SDS011;3314;50.890;4.722;2022-12-10T00:57:11;46.6;;;14.4;;
6561;SDS011;3314;50.890;4.722;2022-12-10T00:59:00;38.9;;;14.8;;
6561;SDS011;3314;50.890;4.722;2022-12-10T01:01:08;46.3;;;16.8;;
6561;SDS011;3314;50.890;4.722;2022-12-10T01:03:08;40.7;;;15.2;;
6561;SDS011;3314;50.890;4.722;2022-12-10T01:05:08;41.3;;;15.6;;
6561;SDS011;3314;50.890;4.722;2022-12-10T01:07:09;43.3;;;15.0;;
6561;SDS011;3314;50.890;4.722;2022-12-10T01:08:59;43.4;;;15.7;;
6561;SDS011;3314;50.890;4.722;2022-12-10T01:10:59;44.1;;;15.9;;
6561;SDS011;3314;50.890;4.722;2022-12-10T01:12:59;40.0;;;13.8;;
6561;SDS011;3314;50.890;4.722;2022-12-10T01:14:58;39.7;;;15.0;;
6561;SDS011;3314;50.890;4.722;2022-12-10T01:16:59;35.1;;;13.0;;
6561;SDS011;3314;50.890;4.722;2022-12-10T01:18:59;39.2;;;14.6;;
6561;SDS011;3314;50.890;4.722;2022-12-10T01:21:01;40.2;;;14.8;;
6561;SDS011;3314;50.890;4.722;2022-12-10T01:23:00;44.8;;;15.4;;
6561;SDS011;3314;50.890;4.722;2022-12-10T01:25:00;42.9;;;16.0;;
6561;SDS011;3314;50.890;4.722;2022-12-10T01:27:00;34.8;;;14.9;;
6561;SDS011;3314;50.890;4.722;2022-12-10T01:29:00;42.0;;;14.5;;
6561;SDS011;3314;50.890;4.722;2022-12-10T01:31:00;39.6;;;12.6;;
6561;SDS011;3314;50.890;4.722;2022-12-10T01:33:00;39.1;;;13.7;;
6561;SDS011;3314;50.890;4.722;2022-12-10T01:35:00;39.0;;;13.4;;
6561;SDS011;3314;50.890;4.722;2022-12-10T01:37:00;39.1;;;13.5;;
6561;SDS011;3314;50.890;4.722;2022-12-10T01:39:00;39.4;;;13.5;;
6561;SDS011;3314;50.890;4.722;2022-12-10T01:41:00;34.5;;;14.0;;
6561;SDS011;3314;50.890;4.722;2022-12-10T01:42:49;39.4;;;16.2;;
6561;SDS011;3314;50.890;4.722;2022-12-10T01:44:57;40.4;;;13.7;;
6561;SDS011;3314;50.890;4.722;2022-12-10T01:46:58;37.9;;;13.1;;
6561;SDS011;3314;50.890;4.722;2022-12-10T01:48:48;48.3;;;14.5;;
6561;SDS011;3314;50.890;4.722;2022-12-10T01:50:48;33.0;;;12.3;;
6561;SDS011;3314;50.890;4.722;2022-12-10T01:52:48;33.1;;;12.6;;
6561;SDS011;3314;50.890;4.722;2022-12-10T01:54:48;37.3;;;13.2;;
6561;SDS011;3314;50.890;4.722;2022-12-10T01:56:49;33.6;;;13.2;;
6561;SDS011;3314;50.890;4.722;2022-12-10T01:58:50;38.2;;;14.2;;
6561;SDS011;3314;50.890;4.722;2022-12-10T02:00:55;37.6;;;11.6;;
6561;SDS011;3314;50.890;4.722;2022-12-10T02:02:46;38.3;;;14.8;;
6561;SDS011;3314;50.890;4.722;2022-12-10T02:04:53;39.6;;;12.7;;
6561;SDS011;3314;50.890;4.722;2022-12-10T02:06:45;36.3;;;12.7;;
6561;SDS011;3314;50.890;4.722;2022-12-10T02:08:46;32.7;;;11.6;;
6561;SDS011;3314;50.890;4.722;2022-12-10T02:10:55;34.8;;;12.3;;
6561;SDS011;3314;50.890;4.722;2022-12-10T02:12:46;35.1;;;13.7;;
6561;SDS011;3314;50.890;4.722;2022-12-10T02:14:50;35.5;;;12.1;;
6561;SDS011;3314;50.890;4.722;2022-12-10T02:16:41;36.5;;;12.0;;
6561;SDS011;3314;50.890;4.722;2022-12-10T02:18:44;39.0;;;14.4;;
6561;SDS011;3314;50.890;4.722;2022-12-10T02:20:46;30.8;;;12.5;;
6561;SDS011;3314;50.890;4.722;2022-12-10T02:22:48;37.2;;;12.9;;
6561;SDS011;3314;50.890;4.722;2022-12-10T02:24:39;32.5;;;12.1;;
6561;SDS011;3314;50.890;4.722;2022-12-10T02:26:40;36.5;;;13.9;;
6561;SDS011;3314;50.890;4.722;2022-12-10T02:28:44;37.7;;;14.2;;
6561;SDS011;3314;50.890;4.722;2022-12-10T02:30:46;39.4;;;12.7;;
6561;SDS011;3314;50.890;4.722;2022-12-10T02:32:38;37.4;;;12.7;;
6561;SDS011;3314;50.890;4.722;2022-12-10T02:34:40;38.0;;;12.5;;
6561;SDS011;3314;50.890;4.722;2022-12-10T02:36:41;45.7;;;15.0;;
6561;SDS011;3314;50.890;4.722;2022-12-10T02:38:42;38.0;;;13.0;;
6561;SDS011;3314;50.890;4.722;2022-12-10T02:40:43;33.9;;;12.2;;
6561;SDS011;3314;50.890;4.722;2022-12-10T02:42:35;37.2;;;13.5;;
6561;SDS011;3314;50.890;4.722;2022-12-10T02:44:36;38.6;;;12.9;;
6561;SDS011;3314;50.890;4.722;2022-12-10T02:46:37;35.2;;;12.9;;
6561;SDS011;3314;50.890;4.722;2022-12-10T02:48:37;41.0;;;13.9;;
6561;SDS011;3314;50.890;4.722;2022-12-10T02:50:38;31.4;;;11.5;;
6561;SDS011;3314;50.890;4.722;2022-12-10T02:52:38;35.8;;;12.9;;
6561;SDS011;3314;50.890;4.722;2022-12-10T02:54:39;32.9;;;11.4;;
6561;SDS011;3314;50.890;4.722;2022-12-10T02:56:41;32.3;;;12.9;;
6561;SDS011;3314;50.890;4.722;2022-12-10T02:58:31;38.0;;;12.7;;
6561;SDS011;3314;50.890;4.722;2022-12-10T03:00:36;40.5;;;12.2;;
6561;SDS011;3314;50.890;4.722;2022-12-10T03:02:31;38.0;;;13.1;;
6561;SDS011;3314;50.890;4.722;2022-12-10T03:04:36;35.7;;;11.7;;
6561;SDS011;3314;50.890;4.722;2022-12-10T03:06:38;35.1;;;13.2;;
6561;SDS011;3314;50.890;4.722;2022-12-10T03:08:28;38.9;;;13.1;;
6561;SDS011;3314;50.890;4.722;2022-12-10T03:10:32;37.2;;;14.0;;
6561;SDS011;3314;50.890;4.722;2022-12-10T03:12:35;43.5;;;14.3;;
6561;SDS011;3314;50.890;4.722;2022-12-10T03:14:27;36.9;;;13.5;;
6561;SDS011;3314;50.890;4.722;2022-12-10T03:16:29;37.5;;;13.7;;
6561;SDS011;3314;50.890;4.722;2022-12-10T03:18:31;33.2;;;12.6;;
6561;SDS011;3314;50.890;4.722;2022-12-10T03:20:34;37.7;;;12.9;;
6561;SDS011;3314;50.890;4.722;2022-12-10T03:22:24;37.7;;;13.7;;
6561;SDS011;3314;50.890;4.722;2022-12-10T03:24:24;35.6;;;12.0;;
6561;SDS011;3314;50.890;4.722;2022-12-10T03:26:24;38.0;;;12.5;;
6561;SDS011;3314;50.890;4.722;2022-12-10T03:28:24;49.4;;;14.7;;
6561;SDS011;3314;50.890;4.722;2022-12-10T03:30:25;34.4;;;13.7;;
6561;SDS011;3314;50.890;4.722;2022-12-10T03:32:26;35.8;;;12.5;;
6561;SDS011;3314;50.890;4.722;2022-12-10T03:34:26;37.8;;;13.0;;
6561;SDS011;3314;50.890;4.722;2022-12-10T03:36:26;39.3;;;13.7;;
6561;SDS011;3314;50.890;4.722;2022-12-10T03:38:26;39.1;;;14.7;;
6561;SDS011;3314;50.890;4.722;2022-12-10T03:40:26;38.1;;;12.7;;
6561;SDS011;3314;50.890;4.722;2022-12-10T03:42:26;45.7;;;14.7;;
6561;SDS011;3314;50.890;4.722;2022-12-10T03:44:27;45.4;;;15.2;;
6561;SDS011;3314;50.890;4.722;2022-12-10T03:46:28;45.1;;;15.1;;
6561;SDS011;3314;50.890;4.722;2022-12-10T03:48:17;43.7;;;15.2;;
6561;SDS011;3314;50.890;4.722;2022-12-10T03:50:17;41.0;;;14.1;;
6561;SDS011;3314;50.890;4.722;2022-12-10T03:52:16;45.6;;;14.0;;
6561;SDS011;3314;50.890;4.722;2022-12-10T03:54:16;40.1;;;13.4;;
6561;SDS011;3314;50.890;4.722;2022-12-10T03:56:16;44.1;;;14.1;;
6561;SDS011;3314;50.890;4.722;2022-12-10T03:58:16;37.6;;;14.9;;
6561;SDS011;3314;50.890;4.722;2022-12-10T04:00:16;44.2;;;13.6;;
6561;SDS011;3314;50.890;4.722;2022-12-10T04:02:16;44.5;;;15.0;;
6561;SDS011;3314;50.890;4.722;2022-12-10T04:04:15;44.6;;;14.9;;
6561;SDS011;3314;50.890;4.722;2022-12-10T04:06:16;44.9;;;14.7;;
6561;SDS011;3314;50.890;4.722;2022-12-10T04:08:16;42.9;;;15.3;;
6561;SDS011;3314;50.890;4.722;2022-12-10T04:10:15;49.2;;;16.5;;
6561;SDS011;3314;50.890;4.722;2022-12-10T04:12:15;50.6;;;16.2;;
6561;SDS011;3314;50.890;4.722;2022-12-10T04:16:22;47.5;;;16.3;;
6561;SDS011;3314;50.890;4.722;2022-12-10T04:16:34;42.4;;;14.2;;
6561;SDS011;3314;50.890;4.722;2022-12-10T04:18:10;45.3;;;14.8;;
6561;SDS011;3314;50.890;4.722;2022-12-10T04:26:52;45.2;;;14.5;;
6561;SDS011;3314;50.890;4.722;2022-12-10T04:27:05;43.1;;;14.8;;
6561;SDS011;3314;50.890;4.722;2022-12-10T04:27:18;38.8;;;14.1;;
6561;SDS011;3314;50.890;4.722;2022-12-10T04:27:31;37.7;;;13.5;;
6561;SDS011;3314;50.890;4.722;2022-12-10T04:28:07;44.6;;;15.6;;
6561;SDS011;3314;50.890;4.722;2022-12-10T04:30:07;52.2;;;15.7;;
6561;SDS011;3314;50.890;4.722;2022-12-10T04:32:08;49.1;;;16.7;;
6561;SDS011;3314;50.890;4.722;2022-12-10T04:34:07;37.9;;;15.1;;
6561;SDS011;3314;50.890;4.722;2022-12-10T04:36:07;41.7;;;14.7;;
6561;SDS011;3314;50.890;4.722;2022-12-10T04:38:07;40.3;;;15.1;;
6561;SDS011;3314;50.890;4.722;2022-12-10T04:40:07;42.3;;;15.5;;
6561;SDS011;3314;50.890;4.722;2022-12-10T04:42:07;46.5;;;14.5;;
6561;SDS011;3314;50.890;4.722;2022-12-10T04:44:07;48.5;;;14.8;;
6561;SDS011;3314;50.890;4.722;2022-12-10T04:46:07;48.7;;;15.8;;
6561;SDS011;3314;50.890;4.722;2022-12-10T04:48:07;46.3;;;15.3;;
6561;SDS011;3314;50.890;4.722;2022-12-10T04:50:07;46.3;;;15.2;;
6561;SDS011;3314;50.890;4.722;2022-12-10T04:52:07;48.9;;;15.5;;
6561;SDS011;3314;50.890;4.722;2022-12-10T04:54:08;39.3;;;15.2;;
6561;SDS011;3314;50.890;4.722;2022-12-10T04:56:08;42.4;;;14.0;;
6561;SDS011;3314;50.890;4.722;2022-12-10T04:58:07;46.8;;;16.7;;
6561;SDS011;3314;50.890;4.722;2022-12-10T05:00:08;40.6;;;16.2;;
6561;SDS011;3314;50.890;4.722;2022-12-10T05:02:08;46.0;;;15.5;;
6561;SDS011;3314;50.890;4.722;2022-12-10T05:03:58;48.4;;;16.0;;
6561;SDS011;3314;50.890;4.722;2022-12-10T05:06:00;45.9;;;16.3;;
6561;SDS011;3314;50.890;4.722;2022-12-10T05:08:01;54.2;;;17.9;;
6561;SDS011;3314;50.890;4.722;2022-12-10T05:10:00;55.1;;;16.8;;
6561;SDS011;3314;50.890;4.722;2022-12-10T05:12:00;46.9;;;16.7;;
6561;SDS011;3314;50.890;4.722;2022-12-10T05:14:00;49.2;;;17.8;;
6561;SDS011;3314;50.890;4.722;2022-12-10T05:16:00;52.5;;;17.9;;
6561;SDS011;3314;50.890;4.722;2022-12-10T05:18:00;46.8;;;17.0;;
6561;SDS011;3314;50.890;4.722;2022-12-10T05:20:00;56.7;;;18.5;;
6561;SDS011;3314;50.890;4.722;2022-12-10T05:24:06;57.1;;;17.4;;
6561;SDS011;3314;50.890;4.722;2022-12-10T05:24:18;49.7;;;18.1;;
6561;SDS011;3314;50.890;4.722;2022-12-10T05:26:01;49.9;;;17.7;;
6561;SDS011;3314;50.890;4.722;2022-12-10T05:28:01;48.0;;;17.4;;
6561;SDS011;3314;50.890;4.722;2022-12-10T05:30:01;52.5;;;16.5;;
6561;SDS011;3314;50.890;4.722;2022-12-10T05:31:50;48.9;;;16.2;;
6561;SDS011;3314;50.890;4.722;2022-12-10T05:33:50;52.7;;;18.0;;
6561;SDS011;3314;50.890;4.722;2022-12-10T05:35:51;52.4;;;18.5;;
6561;SDS011;3314;50.890;4.722;2022-12-10T05:37:51;48.4;;;17.9;;
6561;SDS011;3314;50.890;4.722;2022-12-10T05:39:51;49.8;;;18.0;;
6561;SDS011;3314;50.890;4.722;2022-12-10T05:41:51;50.7;;;17.6;;
6561;SDS011;3314;50.890;4.722;2022-12-10T05:43:52;54.2;;;18.1;;
6561;SDS011;3314;50.890;4.722;2022-12-10T05:45:52;45.5;;;17.0;;
6561;SDS011;3314;50.890;4.722;2022-12-10T05:47:52;44.8;;;15.8;;
6561;SDS011;3314;50.890;4.722;2022-12-10T05:49:52;45.9;;;16.4;;
6561;SDS011;3314;50.890;4.722;2022-12-10T05:51:53;49.6;;;16.8;;
6561;SDS011;3314;50.890;4.722;2022-12-10T05:53:54;45.8;;;15.4;;
6561;SDS011;3314;50.890;4.722;2022-12-10T05:55:59;46.7;;;15.2;;
6561;SDS011;3314;50.890;4.722;2022-12-10T05:57:46;50.2;;;16.3;;
6561;SDS011;3314;50.890;4.722;2022-12-10T05:59:46;45.3;;;16.6;;
6561;SDS011;3314;50.890;4.722;2022-12-10T06:01:46;40.5;;;14.3;;
6561;SDS011;3314;50.890;4.722;2022-12-10T06:03:45;43.2;;;14.9;;
6561;SDS011;3314;50.890;4.722;2022-12-10T06:05:45;40.4;;;15.7;;
6561;SDS011;3314;50.890;4.722;2022-12-10T06:07:45;43.6;;;16.2;;
6561;SDS011;3314;50.890;4.722;2022-12-10T06:09:44;42.7;;;15.4;;
6561;SDS011;3314;50.890;4.722;2022-12-10T06:11:44;47.2;;;17.1;;
6561;SDS011;3314;50.890;4.722;2022-12-10T06:13:44;47.0;;;16.6;;
6561;SDS011;3314;50.890;4.722;2022-12-10T06:15:43;45.2;;;17.3;;
6561;SDS011;3314;50.890;4.722;2022-12-10T06:17:43;47.3;;;15.7;;
6561;SDS011;3314;50.890;4.722;2022-12-10T06:19:43;47.7;;;17.2;;
6561;SDS011;3314;50.890;4.722;2022-12-10T06:21:42;42.7;;;16.2;;
6561;SDS011;3314;50.890;4.722;2022-12-10T06:23:42;55.3;;;17.9;;
6561;SDS011;3314;50.890;4.722;2022-12-10T06:25:42;48.6;;;17.1;;
6561;SDS011;3314;50.890;4.722;2022-12-10T06:27:42;53.4;;;19.0;;
6561;SDS011;3314;50.890;4.722;2022-12-10T06:29:41;50.5;;;18.6;;
6561;SDS011;3314;50.890;4.722;2022-12-10T06:31:41;49.9;;;16.3;;
6561;SDS011;3314;50.890;4.722;2022-12-10T06:33:41;41.8;;;16.1;;
6561;SDS011;3314;50.890;4.722;2022-12-10T06:35:40;46.7;;;16.3;;
6561;SDS011;3314;50.890;4.722;2022-12-10T06:37:40;47.2;;;17.6;;
6561;SDS011;3314;50.890;4.722;2022-12-10T06:39:40;48.1;;;16.7;;
6561;SDS011;3314;50.890;4.722;2022-12-10T06:41:44;45.7;;;16.6;;
6561;SDS011;3314;50.890;4.722;2022-12-10T06:43:34;49.8;;;16.4;;
6561;SDS011;3314;50.890;4.722;2022-12-10T06:45:37;53.4;;;15.5;;
6561;SDS011;3314;50.890;4.722;2022-12-10T06:47:37;48.7;;;17.9;;
6561;SDS011;3314;50.890;4.722;2022-12-10T06:49:37;48.2;;;16.1;;
6561;SDS011;3314;50.890;4.722;2022-12-10T06:51:38;45.8;;;15.5;;
6561;SDS011;3314;50.890;4.722;2022-12-10T06:53:38;47.7;;;16.6;;
6561;SDS011;3314;50.890;4.722;2022-12-10T06:55:39;55.7;;;18.4;;
6561;SDS011;3314;50.890;4.722;2022-12-10T06:57:28;59.4;;;17.1;;
6561;SDS011;3314;50.890;4.722;2022-12-10T06:59:28;48.7;;;17.0;;
6561;SDS011;3314;50.890;4.722;2022-12-10T07:01:28;55.0;;;17.4;;
6561;SDS011;3314;50.890;4.722;2022-12-10T07:03:27;48.7;;;17.1;;
6561;SDS011;3314;50.890;4.722;2022-12-10T07:05:27;46.2;;;16.3;;
6561;SDS011;3314;50.890;4.722;2022-12-10T07:07:27;50.2;;;16.9;;
6561;SDS011;3314;50.890;4.722;2022-12-10T07:09:26;44.4;;;17.5;;
6561;SDS011;3314;50.890;4.722;2022-12-10T07:11:26;47.4;;;18.1;;
6561;SDS011;3314;50.890;4.722;2022-12-10T07:13:26;55.3;;;18.4;;
6561;SDS011;3314;50.890;4.722;2022-12-10T07:15:27;55.7;;;19.8;;
6561;SDS011;3314;50.890;4.722;2022-12-10T07:17:27;53.2;;;18.5;;
6561;SDS011;3314;50.890;4.722;2022-12-10T07:19:27;53.1;;;17.8;;
6561;SDS011;3314;50.890;4.722;2022-12-10T07:21:27;56.7;;;18.2;;
6561;SDS011;3314;50.890;4.722;2022-12-10T07:23:27;54.4;;;20.0;;
6561;SDS011;3314;50.890;4.722;2022-12-10T07:25:27;59.2;;;19.0;;
6561;SDS011;3314;50.890;4.722;2022-12-10T07:27:27;55.6;;;18.9;;
6561;SDS011;3314;50.890;4.722;2022-12-10T07:29:27;68.0;;;19.8;;
6561;SDS011;3314;50.890;4.722;2022-12-10T07:31:27;61.4;;;19.9;;
6561;SDS011;3314;50.890;4.722;2022-12-10T07:33:27;68.0;;;20.0;;
6561;SDS011;3314;50.890;4.722;2022-12-10T07:35:26;57.1;;;18.4;;
6561;SDS011;3314;50.890;4.722;2022-12-10T07:37:26;65.1;;;22.1;;
6561;SDS011;3314;50.890;4.722;2022-12-10T07:39:26;67.4;;;21.0;;
6561;SDS011;3314;50.890;4.722;2022-12-10T07:41:25;57.9;;;19.2;;
6561;SDS011;3314;50.890;4.722;2022-12-10T07:43:25;64.2;;;20.3;;
6561;SDS011;3314;50.890;4.722;2022-12-10T07:45:25;62.7;;;20.8;;
6561;SDS011;3314;50.890;4.722;2022-12-10T07:47:24;65.3;;;19.7;;
6561;SDS011;3314;50.890;4.722;2022-12-10T07:49:24;60.3;;;19.7;;
6561;SDS011;3314;50.890;4.722;2022-12-10T07:51:24;57.4;;;18.4;;
6561;SDS011;3314;50.890;4.722;2022-12-10T07:53:14;62.9;;;19.6;;
6561;SDS011;3314;50.890;4.722;2022-12-10T07:55:14;54.2;;;19.2;;
6561;SDS011;3314;50.890;4.722;2022-12-10T07:57:14;65.4;;;19.3;;
6561;SDS011;3314;50.890;4.722;2022-12-10T07:59:14;53.0;;;17.3;;
6561;SDS011;3314;50.890;4.722;2022-12-10T08:01:15;64.3;;;18.5;;
6561;SDS011;3314;50.890;4.722;2022-12-10T08:03:15;67.8;;;20.4;;
6561;SDS011;3314;50.890;4.722;2022-12-10T08:05:14;60.9;;;18.6;;
6561;SDS011;3314;50.890;4.722;2022-12-10T08:07:16;59.8;;;18.8;;
6561;SDS011;3314;50.890;4.722;2022-12-10T08:09:15;67.7;;;20.0;;
6561;SDS011;3314;50.890;4.722;2022-12-10T08:11:16;68.8;;;20.4;;
6561;SDS011;3314;50.890;4.722;2022-12-10T08:13:16;55.5;;;18.0;;
6561;SDS011;3314;50.890;4.722;2022-12-10T08:15:16;63.6;;;19.2;;
6561;SDS011;3314;50.890;4.722;2022-12-10T08:17:15;59.4;;;20.0;;
6561;SDS011;3314;50.890;4.722;2022-12-10T08:19:15;59.3;;;19.3;;
6561;SDS011;3314;50.890;4.722;2022-12-10T08:21:15;50.4;;;17.1;;
6561;SDS011;3314;50.890;4.722;2022-12-10T08:23:16;53.3;;;17.5;;
6561;SDS011;3314;50.890;4.722;2022-12-10T08:25:15;46.3;;;15.7;;
6561;SDS011;3314;50.890;4.722;2022-12-10T08:27:05;52.9;;;16.3;;
6561;SDS011;3314;50.890;4.722;2022-12-10T08:29:05;50.4;;;16.0;;
6561;SDS011;3314;50.890;4.722;2022-12-10T08:31:05;58.2;;;17.0;;
6561;SDS011;3314;50.890;4.722;2022-12-10T08:33:06;48.1;;;15.6;;
6561;SDS011;3314;50.890;4.722;2022-12-10T08:35:06;55.0;;;16.0;;
6561;SDS011;3314;50.890;4.722;2022-12-10T08:37:05;52.6;;;16.9;;
6561;SDS011;3314;50.890;4.722;2022-12-10T08:39:05;52.7;;;16.6;;
6561;SDS011;3314;50.890;4.722;2022-12-10T08:41:05;56.2;;;15.9;;
6561;SDS011;3314;50.890;4.722;2022-12-10T08:43:05;53.7;;;17.1;;
6561;SDS011;3314;50.890;4.722;2022-12-10T08:45:05;50.9;;;17.1;;
6561;SDS011;3314;50.890;4.722;2022-12-10T08:47:05;45.5;;;14.6;;
6561;SDS011;3314;50.890;4.722;2022-12-10T08:49:05;57.5;;;18.6;;
6561;SDS011;3314;50.890;4.722;2022-12-10T08:51:05;50.5;;;15.4;;
6561;SDS011;3314;50.890;4.722;2022-12-10T08:53:05;47.5;;;16.5;;
6561;SDS011;3314;50.890;4.722;2022-12-10T08:55:05;46.2;;;15.0;;
6561;SDS011;3314;50.890;4.722;2022-12-10T08:57:05;46.5;;;16.7;;
6561;SDS011;3314;50.890;4.722;2022-12-10T08:59:04;58.5;;;17.2;;
6561;SDS011;3314;50.890;4.722;2022-12-10T09:01:06;53.9;;;17.3;;
6561;SDS011;3314;50.890;4.722;2022-12-10T09:03:05;52.9;;;15.8;;
6561;SDS011;3314;50.890;4.722;2022-12-10T09:05:06;56.4;;;17.3;;
6561;SDS011;3314;50.890;4.722;2022-12-10T09:06:55;50.5;;;16.0;;
6561;SDS011;3314;50.890;4.722;2022-12-10T09:08:55;53.8;;;16.4;;
6561;SDS011;3314;50.890;4.722;2022-12-10T09:10:55;53.5;;;17.0;;
6561;SDS011;3314;50.890;4.722;2022-12-10T09:12:55;48.3;;;14.0;;
6561;SDS011;3314;50.890;4.722;2022-12-10T09:14:55;49.6;;;15.6;;
6561;SDS011;3314;50.890;4.722;2022-12-10T09:16:54;47.9;;;14.9;;
6561;SDS011;3314;50.890;4.722;2022-12-10T09:18:54;45.8;;;16.2;;
6561;SDS011;3314;50.890;4.722;2022-12-10T09:20:53;50.4;;;15.9;;
6561;SDS011;3314;50.890;4.722;2022-12-10T09:22:53;44.8;;;15.3;;
6561;SDS011;3314;50.890;4.722;2022-12-10T09:24:53;44.7;;;13.9;;
6561;SDS011;3314;50.890;4.722;2022-12-10T09:26:53;47.8;;;15.7;;
6561;SDS011;3314;50.890;4.722;2022-12-10T09:28:52;47.3;;;15.5;;
6561;SDS011;3314;50.890;4.722;2022-12-10T09:30:55;40.2;;;14.9;;
6561;SDS011;3314;50.890;4.722;2022-12-10T09:32:55;52.6;;;14.9;;
6561;SDS011;3314;50.890;4.722;2022-12-10T09:34:55;43.0;;;14.9;;
6561;SDS011;3314;50.890;4.722;2022-12-10T09:36:55;50.7;;;16.1;;
6561;SDS011;3314;50.890;4.722;2022-12-10T09:38:54;46.4;;;14.4;;
6561;SDS011;3314;50.890;4.722;2022-12-10T09:40:57;45.6;;;13.7;;
6561;SDS011;3314;50.890;4.722;2022-12-10T09:42:47;45.8;;;15.5;;
6561;SDS011;3314;50.890;4.722;2022-12-10T09:44:53;42.2;;;13.7;;
6561;SDS011;3314;50.890;4.722;2022-12-10T09:46:47;43.0;;;14.3;;
6561;SDS011;3314;50.890;4.722;2022-12-10T09:48:51;45.7;;;12.5;;
6561;SDS011;3314;50.890;4.722;2022-12-10T09:50:55;43.5;;;13.2;;
6561;SDS011;3314;50.890;4.722;2022-12-10T09:52:46;41.8;;;12.8;;
6561;SDS011;3314;50.890;4.722;2022-12-10T09:54:47;41.1;;;13.1;;
6561;SDS011;3314;50.890;4.722;2022-12-10T09:56:48;41.0;;;15.1;;
6561;SDS011;3314;50.890;4.722;2022-12-10T09:58:49;39.9;;;12.9;;
6561;SDS011;3314;50.890;4.722;2022-12-10T10:00:50;49.6;;;15.7;;
6561;SDS011;3314;50.890;4.722;2022-12-10T10:02:41;43.9;;;13.6;;
6561;SDS011;3314;50.890;4.722;2022-12-10T10:04:40;37.4;;;13.4;;
6561;SDS011;3314;50.890;4.722;2022-12-10T10:06:40;35.5;;;12.2;;
6561;SDS011;3314;50.890;4.722;2022-12-10T10:08:41;44.6;;;13.1;;
6561;SDS011;3314;50.890;4.722;2022-12-10T10:10:42;39.3;;;12.7;;
6561;SDS011;3314;50.890;4.722;2022-12-10T10:12:42;40.3;;;13.2;;
6561;SDS011;3314;50.890;4.722;2022-12-10T10:14:42;40.6;;;12.6;;
6561;SDS011;3314;50.890;4.722;2022-12-10T10:16:43;36.6;;;10.8;;
6561;SDS011;3314;50.890;4.722;2022-12-10T10:18:45;40.9;;;13.0;;
6561;SDS011;3314;50.890;4.722;2022-12-10T10:20:45;39.3;;;13.0;;
6561;SDS011;3314;50.890;4.722;2022-12-10T10:22:45;44.1;;;13.1;;
6561;SDS011;3314;50.890;4.722;2022-12-10T10:24:46;41.0;;;13.9;;
6561;SDS011;3314;50.890;4.722;2022-12-10T10:26:35;40.8;;;13.8;;
6561;SDS011;3314;50.890;4.722;2022-12-10T10:28:34;41.5;;;13.1;;
6561;SDS011;3314;50.890;4.722;2022-12-10T10:30:35;45.9;;;14.0;;
6561;SDS011;3314;50.890;4.722;2022-12-10T10:32:44;42.0;;;14.8;;
6561;SDS011;3314;50.890;4.722;2022-12-10T10:34:33;43.9;;;13.2;;
6561;SDS011;3314;50.890;4.722;2022-12-10T10:36:33;39.4;;;13.3;;
6561;SDS011;3314;50.890;4.722;2022-12-10T10:38:33;47.9;;;13.4;;
6561;SDS011;3314;50.890;4.722;2022-12-10T10:40:38;42.9;;;13.8;;
6561;SDS011;3314;50.890;4.722;2022-12-10T10:42:40;39.8;;;12.4;;
6561;SDS011;3314;50.890;4.722;2022-12-10T10:44:40;40.5;;;13.6;;
6561;SDS011;3314;50.890;4.722;2022-12-10T10:46:29;40.4;;;12.3;;
6561;SDS011;3314;50.890;4.722;2022-12-10T10:48:34;46.8;;;13.5;;
6561;SDS011;3314;50.890;4.722;2022-12-10T10:50:36;46.2;;;13.7;;
6561;SDS011;3314;50.890;4.722;2022-12-10T10:52:37;43.1;;;14.7;;
6561;SDS011;3314;50.890;4.722;2022-12-10T10:54:38;51.4;;;15.6;;
6561;SDS011;3314;50.890;4.722;2022-12-10T10:56:27;54.0;;;14.8;;
6561;SDS011;3314;50.890;4.722;2022-12-10T10:58:29;46.8;;;14.9;;
6561;SDS011;3314;50.890;4.722;2022-12-10T11:00:28;48.8;;;15.0;;
6561;SDS011;3314;50.890;4.722;2022-12-10T11:02:30;46.6;;;15.1;;
6561;SDS011;3314;50.890;4.722;2022-12-10T11:04:31;45.8;;;14.8;;
6561;SDS011;3314;50.890;4.722;2022-12-10T11:06:25;39.4;;;14.1;;
6561;SDS011;3314;50.890;4.722;2022-12-10T11:08:25;43.6;;;14.9;;
6561;SDS011;3314;50.890;4.722;2022-12-10T11:10:26;46.5;;;14.5;;
6561;SDS011;3314;50.890;4.722;2022-12-10T11:12:28;44.1;;;13.5;;
6561;SDS011;3314;50.890;4.722;2022-12-10T11:14:30;49.6;;;15.6;;
6561;SDS011;3314;50.890;4.722;2022-12-10T11:16:30;44.9;;;15.5;;
6561;SDS011;3314;50.890;4.722;2022-12-10T11:18:31;45.7;;;14.2;;
6561;SDS011;3314;50.890;4.722;2022-12-10T11:20:22;50.6;;;14.3;;
6561;SDS011;3314;50.890;4.722;2022-12-10T11:22:23;44.8;;;15.0;;
6561;SDS011;3314;50.890;4.722;2022-12-10T11:24:24;50.7;;;15.1;;
6561;SDS011;3314;50.890;4.722;2022-12-10T11:26:28;44.9;;;12.5;;
6561;SDS011;3314;50.890;4.722;2022-12-10T11:28:23;39.5;;;13.7;;
6561;SDS011;3314;50.890;4.722;2022-12-10T11:30:23;40.1;;;14.2;;
6561;SDS011;3314;50.890;4.722;2022-12-10T11:32:28;37.8;;;13.8;;
6561;SDS011;3314;50.890;4.722;2022-12-10T11:34:18;37.2;;;14.7;;
6561;SDS011;3314;50.890;4.722;2022-12-10T11:36:23;41.5;;;12.9;;
6561;SDS011;3314;50.890;4.722;2022-12-10T11:38:19;40.3;;;12.7;;
6561;SDS011;3314;50.890;4.722;2022-12-10T11:40:26;41.1;;;13.4;;
6561;SDS011;3314;50.890;4.722;2022-12-10T11:42:17;42.5;;;14.3;;
6561;SDS011;3314;50.890;4.722;2022-12-10T11:44:20;42.2;;;14.4;;
6561;SDS011;3314;50.890;4.722;2022-12-10T11:46:27;43.4;;;14.1;;
6561;SDS011;3314;50.890;4.722;2022-12-10T11:48:20;43.0;;;13.7;;
6561;SDS011;3314;50.890;4.722;2022-12-10T11:50:17;36.6;;;13.5;;
6561;SDS011;3314;50.890;4.722;2022-12-10T11:52:31;41.6;;;15.3;;
6561;SDS011;3314;50.890;4.722;2022-12-10T11:54:25;38.0;;;13.6;;
6561;SDS011;3314;50.890;4.722;2022-12-10T11:56:18;44.3;;;12.9;;
6561;SDS011;3314;50.890;4.722;2022-12-10T11:58:26;39.2;;;12.5;;
6561;SDS011;3314;50.890;4.722;2022-12-10T12:00:17;41.1;;;12.8;;
6561;SDS011;3314;50.890;4.722;2022-12-10T12:02:24;42.6;;;14.8;;
6561;SDS011;3314;50.890;4.722;2022-12-10T12:04:19;43.0;;;12.5;;
6561;SDS011;3314;50.890;4.722;2022-12-10T12:06:15;40.8;;;13.6;;
6561;SDS011;3314;50.890;4.722;2022-12-10T12:08:19;43.8;;;14.2;;
6561;SDS011;3314;50.890;4.722;2022-12-10T12:10:17;40.4;;;14.8;;
6561;SDS011;3314;50.890;4.722;2022-12-10T12:12:11;41.3;;;12.8;;
6561;SDS011;3314;50.890;4.722;2022-12-10T12:14:13;39.2;;;13.0;;
6561;SDS011;3314;50.890;4.722;2022-12-10T12:16:16;41.8;;;13.5;;
6561;SDS011;3314;50.890;4.722;2022-12-10T12:18:08;43.6;;;14.6;;
6561;SDS011;3314;50.890;4.722;2022-12-10T12:20:14;42.6;;;12.7;;
6561;SDS011;3314;50.890;4.722;2022-12-10T12:22:21;42.6;;;13.7;;